Flight Track Log - Related Links

Times and Time Zones

All times are in EDT time to prevent confusion due to time zone crossing. See the ASQ4086 flight status page for this flight to view local times or setup timezone preferences in your user account.

Time Position Orientation Groundspeed Altitude Reporting Facility
EDT Latitude Longitude Course Direction KTS MPH feet Rate Location/Type
Mon 08:52:00 AM 34.4667 -87.0166 231° Southwest  Level FlightAware Approximate
Mon 08:53:00 AM 34.4134 -87.1020 233° Southwest  Level FlightAware Approximate
Mon 08:53:21 AM 34.4433 -86.8817 231° Southwest 273 314 8,500  Level Memphis Center
Mon 08:54:00 AM 34.3591 -87.1864 231° Southwest  Level FlightAware Approximate
Mon 08:54:21 AM 34.4014 -86.9539 235° Southwest 273 314 10,400  Level Memphis Center
Mon 08:55:00 AM 34.3036 -87.2697 231° Southwest  Level FlightAware Approximate
Mon 08:55:21 AM 34.3494 -87.0414 234° Southwest 273 314 11,500  Level Memphis Center
Mon 08:56:00 AM 34.2481 -87.3529 231° Southwest  Level FlightAware Approximate
Mon 08:56:21 AM 34.2956 -87.1342 235° Southwest 302 348 12,600  Level Memphis Center
Mon 08:57:00 AM 34.1927 -87.4361 231° Southwest  Level FlightAware Approximate
Mon 08:57:21 AM 34.2397 -87.2317 235° Southwest 338 389 14,000  Level Memphis Center
Mon 08:58:00 AM 34.1372 -87.5192 231° Southwest  Level FlightAware Approximate
Mon 08:58:21 AM 34.1817 -87.3317 235° Southwest 359 413 15,000  Level Memphis Center
Mon 08:59:21 AM 34.1236 -87.4342 236° Southwest 372 428 16,600 1,650 Climbing Memphis Center
Mon 09:00:21 AM 34.0861 -87.5256 244° Southwest 372 428 18,300 1,850 Climbing Memphis Center
Mon 09:01:21 AM 34.0531 -87.6344 250° West 349 402 20,300 2,000 Climbing Memphis Center
Mon 09:02:21 AM 34.0825 -87.7364 289° West 325 374 22,300 1,800 Climbing Memphis Center
Mon 09:03:21 AM 34.1261 -87.8281 300° West 314 361 23,900 1,050 Climbing Memphis Center
Mon 09:04:21 AM 34.1219 -87.9408 267° West 327 376 24,400 500 Climbing Memphis Center
Mon 09:05:21 AM 34.0531 -88.0533 234° Southwest 353 406 24,900 650 Climbing Memphis Center
Mon 09:06:21 AM 33.9778 -88.1553 228° Southwest 392 451 25,700 1,000 Climbing Memphis Center
Mon 09:07:21 AM 33.9025 -88.2600 229° Southwest 414 476 26,900 1,050 Climbing Memphis Center
Mon 09:08:21 AM 33.8311 -88.3617 230° Southwest 414 476 27,800 1,000 Climbing Memphis Center
Mon 09:09:21 AM 33.7575 -88.4633 229° Southwest 414 476 28,900 1,150 Climbing Memphis Center
Mon 09:10:21 AM 33.6858 -88.5647 230° Southwest 409 471 30,100 1,050 Climbing Memphis Center
Mon 09:11:21 AM 33.6122 -88.6661 229° Southwest 409 471 31,000 850 Climbing Memphis Center
Mon 09:12:21 AM 33.5528 -88.7469 229° Southwest 409 471 31,800 1,000 Climbing Memphis Center
Mon 09:13:21 AM 33.4686 -88.8706 231° Southwest 409 471 33,000 850 Climbing Memphis Center
Mon 09:14:21 AM 33.3906 -88.9764 229° Southwest 409 471 33,500 500 Climbing Memphis Center
Mon 09:15:21 AM 33.3144 -89.0819 229° Southwest 414 476 34,000 700 Climbing Memphis Center
Mon 09:16:21 AM 33.2361 -89.1850 228° Southwest 414 476 34,900 950 Climbing Memphis Center
Mon 09:17:21 AM 33.1642 -89.2925 231° Southwest 419 482 35,900 550 Climbing Memphis Center
Mon 09:18:21 AM 33.0983 -89.4075 236° Southwest 419 482 36,000 50 Climbing Memphis Center
Mon 09:19:21 AM 33.0303 -89.5247 235° Southwest 424 488 36,000  Level Memphis Center
Mon 09:20:21 AM 32.9642 -89.6392 235° Southwest 434 499 36,000  Level Memphis Center
Mon 09:21:21 AM 32.9083 -89.7361 236° Southwest 439 505 36,000  Level Memphis Center
Mon 09:22:21 AM 32.8297 -89.8753 236° Southwest 439 505 36,000  Level Memphis Center
Mon 09:23:21 AM 32.7592 -89.9917 234° Southwest 439 505 36,000  Level Memphis Center
Mon 09:24:21 AM 32.6925 -90.1081 236° Southwest 439 505 36,000  Level Memphis Center
Mon 09:25:21 AM 32.6258 -90.2217 235° Southwest 434 499 36,000  Level Memphis Center
Mon 09:26:21 AM 32.5592 -90.3375 236° Southwest 434 499 36,000  Level Memphis Center
Mon 09:27:21 AM 32.4922 -90.4508 235° Southwest 429 494 36,000  Level Memphis Center
Mon 09:28:21 AM 32.4233 -90.5664 235° Southwest 429 494 36,000  Level Memphis Center
Mon 09:29:21 AM 32.3564 -90.6819 236° Southwest 429 494 36,000  Level Memphis Center
Mon 09:30:21 AM 32.2911 -90.7922 235° Southwest 429 494 36,000  Level Memphis Center
Mon 09:31:21 AM 32.2219 -90.9075 235° Southwest 429 494 36,000  Level Memphis Center
Mon 09:33:07 AM 32.1097 -91.1000 235° Southwest 421 484 36,000  Level Houston Center
Mon 09:34:09 AM 32.0414 -91.2125 234° Southwest 422 486 36,000  Level Houston Center
Mon 09:35:11 AM 31.9747 -91.3231 235° Southwest 416 479 36,000  Level Houston Center
Mon 09:36:13 AM 31.9083 -91.4342 235° Southwest 417 480 36,000  Level Houston Center
Mon 09:37:15 AM 31.8406 -91.5461 235° Southwest 419 482 36,000  Level Houston Center
Mon 09:38:17 AM 31.7594 -91.6814 235° Southwest 423 487 36,000  Level Houston Center
Mon 09:39:19 AM 31.6900 -91.7942 234° Southwest 426 490 36,000  Level Houston Center
Mon 09:40:21 AM 31.6228 -91.9075 235° Southwest 424 488 36,000  Level Houston Center
Mon 09:41:23 AM 31.5528 -92.0194 234° Southwest 423 487 36,000  Level Houston Center
Mon 09:42:25 AM 31.4919 -92.1447 240° Southwest 410 472 36,000  Level Houston Center
Mon 09:43:27 AM 31.4667 -92.2689 257° West 395 455 36,000 -726 Level Houston Center
Mon 09:44:29 AM 31.4417 -92.3947 257° West 397 457 34,500 -1,403 Descending Houston Center
Mon 09:45:31 AM 31.4175 -92.5183 257° West 392 451 33,100 -726 Descending Houston Center
Mon 09:46:33 AM 31.3747 -92.6656 251° West 411 473 33,000 -97 Descending Houston Center
Mon 09:47:35 AM 31.3033 -92.7706 232° Southwest 415 478 32,900 -339 Descending Houston Center
Mon 09:48:37 AM 31.2306 -92.8775 232° Southwest 420 483 32,300 -484 Descending Houston Center
Mon 09:49:39 AM 31.1589 -92.9819 231° Southwest 415 478 31,900 -145 Descending Houston Center
Mon 09:50:41 AM 31.0867 -93.0878 231° Southwest 417 480 32,000 48 Climbing Houston Center
Mon 09:51:43 AM 31.0136 -93.1936 231° Southwest 420 483 32,000  Level Houston Center
Mon 09:52:45 AM 30.9269 -93.3200 231° Southwest 419 482 32,000  Level Houston Center
Mon 09:53:47 AM 30.8561 -93.4217 231° Southwest 409 471 32,000 -97 Level Houston Center
Mon 09:54:49 AM 30.7956 -93.5289 237° Southwest 403 464 31,800 -768 Descending Houston Center
Mon 09:55:52 AM 30.7617 -93.6522 252° West 402 463 30,400 -1,392 Descending Houston Center
Mon 09:56:54 AM 30.7286 -93.7789 253° West 410 472 28,900 -2,226 Descending Houston Center
Mon 09:57:56 AM 30.6917 -93.9244 254° West 399 459 25,800 -3,000 Descending Houston Center
Mon 09:58:58 AM 30.6619 -94.0408 253° West 384 442 22,700 -2,855 Descending Houston Center
Mon 10:00:00 AM 30.5794 -94.1186 219° Southwest 384 442 19,900 -2,371 Descending Houston Center
Mon 10:01:02 AM 30.4872 -94.1772 209° Southwest 379 436 17,800 -1,694 Descending Houston Center
Mon 10:02:04 AM 30.4000 -94.2331 209° Southwest 365 420 16,400 -1,895 Descending Houston Center
Mon 10:02:37 AM 30.3400 -94.2683 207° Southwest 336 387 14,800 -2,710 Descending Houston Center
Mon 10:03:06 AM 30.2997 -94.2928 208° Southwest 343 395 13,600 -2,464 Descending Houston Center
Mon 10:03:33 AM 30.2567 -94.3181 207° Southwest 347 399 12,500 -1,645 Descending Houston Center
Mon 10:04:08 AM 30.2167 -94.3453 210° Southwest 340 391 11,900 -455 Descending Houston Center
Mon 10:04:39 AM 30.1894 -94.4019 241° Southwest 337 388 12,000  Climbing Houston Center
Mon 10:05:10 AM 30.1833 -94.4431 260° West 331 381 11,900 -98 Descending Houston Center
Mon 10:05:40 AM 30.1719 -94.5033 258° West 329 379 11,900 97 Level Houston Center
Mon 10:06:12 AM 30.1664 -94.5431 261° West 328 377 12,000 97 Climbing Houston Center
Mon 10:06:42 AM 30.1533 -94.6122 258° West 331 381 12,000  Level Houston Center
Mon 10:07:14 AM 30.1486 -94.6472 261° West 330 380 12,000 -197 Level Houston Center
Mon 10:07:43 AM 30.1364 -94.7208 259° West 333 383 11,800 -581 Descending Houston Center
Mon 10:08:16 AM 30.1278 -94.7725 259° West 330 380 11,400 -885 Descending Houston Center
Mon 10:08:44 AM 30.1189 -94.8219 258° West 325 374 10,900 -968 Descending Houston Center
Mon 10:09:18 AM 30.1097 -94.8733 258° West 325 374 10,400 -982 Descending Houston Center
Mon 10:09:39 AM 30.1044 -94.9156 262° West 322 371 10,000 -774 Descending Houston Center
Mon 10:10:20 AM 30.1058 -94.9728 272° West 311 358 9,600 -806 Descending Houston Center
Mon 10:10:46 AM 30.1061 -95.0217 270° West 285 328 9,100 -871 Descending Houston Center
Mon 10:11:22 AM 30.1064 -95.0633 270° West 288 331 8,700 -984 Descending Houston Center
Mon 10:11:47 AM 30.1047 -95.1186 268° West 292 336 8,100 -1,065 Descending Houston Center
Mon 10:12:24 AM 30.1067 -95.1556 273° West 288 331 7,600 -1,075 Descending Houston Center
Mon 10:12:54 AM 30.1058 -95.2200 269° West 277 319 6,900 -1,161 Descending Houston Center
Mon 10:13:26 AM 30.1067 -95.2594 271° West 272 313 6,400 -885 Descending Houston Center
Mon 10:13:55 AM 30.1069 -95.3019 270° West 269 310 6,000 -484 Descending Houston Center
Mon 10:14:28 AM 30.1064 -95.3450 269° West 268 308 5,900 -750 Descending Houston Center
Mon 10:14:51 AM 30.1058 -95.3817 269° West 266 306 5,300 -1,645 Descending Houston Center
Mon 10:15:30 AM 30.1075 -95.4306 272° West 269 310 4,200 -1,770 Descending Houston Center
Mon 10:15:52 AM 30.1056 -95.4711 267° West 265 305 3,500 -1,161 Descending Houston Center
Mon 10:16:32 AM 30.1069 -95.5142 272° West 265 305 3,000 -448 Descending Houston Center
Mon 10:16:59 AM 30.1056 -95.5628 268° West 260 299 3,000  Level Houston Center
Mon 10:17:34 AM 30.1067 -95.5967 272° West 262 302 3,000  Level Houston Center
Mon 10:18:00 AM 30.1006 -95.6481 262° West 267 307 3,000  Level Houston Center
Mon 10:18:36 AM 30.0658 -95.6625 200° South 261 300 3,000  Level Houston Center
Mon 10:19:01 AM 30.0350 -95.6678 188° South 248 285 3,000  Level Houston Center
Mon 10:19:38 AM 30.0064 -95.6428 143° Southeast 261 300 3,000 -98 Level Houston Center
Mon 10:20:02 AM 30.0067 -95.6083 89° East 248 285 2,900  Descending Houston Center
Mon 10:20:40 AM 30.0072 -95.5694 89° East 240 276 3,000 97 Climbing Houston Center
Mon 10:21:04 AM 30.0064 -95.5361 92° East 218 251 3,000 -581 Level Houston Center
Mon 10:21:42 AM 30.0072 -95.4986 89° East 228 262 2,400 -1,100 Descending Houston Center
Mon 10:22:04 AM 30.0067 -95.4683 91° East 208 239 1,900 -857 Descending Houston Center
Mon 10:22:45 AM 30.0069 -95.4389 89° East 206 237 1,500 -750 Descending Houston Center
Mon 10:23:00 AM 30.0069 -95.4250 90° East 130 150 1,200 -677 Descending Houston Center
Mon 10:23:47 AM 30.0075 -95.3958 89° East 159 183 800 -716 Descending Houston Center
Mon 10:24:07 AM 30.0064 -95.3744 93° East 135 155 400 -1,200 Descending Houston Center

Login

Don't have an account? Register now (free) for customized features, flight alerts, and more!